North Spring Valley, Nevada Weather observations

Data are for 10 minute period ending at time listed.
 Day   Time   Solar   Ave.   Ave.  Ave.  Vector  Max.   Baro.   Total    
  of    of     Rad.   Air    Rel.  Wind   Wind   Wind  Press.  Precip.   
Year   Day            Temp.  Hum.  Speed  Dir.   Gust                    
2016   (PST)  Kw/m2    F      %     mph   deg.    mph    mb.     in.     
-------------------------------------------------------------------------
 270   15:20   0.41   74.0    21    4.7    16    10.9   833.9    0.00 
 270   15:30   0.37   73.6    22    6.1    14     9.6   833.8    0.00 
 270   15:40   0.34   73.1    23    5.8    48     9.9   833.7    0.00 
 270   15:50   0.30   72.8    24    5.6    28     9.3   833.6    0.00 
 270   16:00   0.27   72.3    24    6.3    32    10.4   833.5    0.00 
 270   16:10   0.23   72.0    25    5.9    27    10.7   833.5    0.00 
 270   16:20   0.18   71.2    26    5.9    25    10.7   833.4    0.00 
 270   16:30   0.02   68.8    28    4.6    24     7.5   833.4    0.00 
 270   16:40   0.02   66.5    30    4.9     9     7.6   833.5    0.00 
 270   16:50   0.02   65.7    30    3.9   348     5.1   833.5    0.00 
 270   17:00   0.01   64.8    31    4.0   332     5.0   833.5    0.00 
 270   17:10   0.01   62.3    35    5.3   304     6.1   833.7    0.00 
 270   17:20   0.01   60.7    38    5.4   304     7.5   833.8    0.00 
 270   17:30   0.01   60.6    38    5.8   305     9.4   833.8    0.00 
 270   17:40   0.00   60.3    38    5.7   310     9.0   833.9    0.00 
 270   17:50   0.00   61.4    36    6.1   317     7.9   833.9    0.00 
 270   18:00   0.00   61.9    35    6.0   317     8.0   834.0    0.00 
 270   18:10   0.00   61.5    36    6.0   319     8.0   834.1    0.00 
 270   18:20   0.00   61.0    36    7.0   324     9.6   834.1    0.00 
 270   18:30   0.00   60.6    36    6.4   325     8.7   834.2    0.00 
 270   18:40   0.00   60.7    36    6.1   325     8.2   834.2    0.00 
 270   18:50   0.00   59.8    38    5.4   323     7.2   834.2    0.00 
 270   19:00   0.00   60.5    40    8.1   337    12.9   834.3    0.00 
 270   19:10   0.00   61.8    40    9.9   341    14.2   834.3    0.00 
 270   19:20   0.00   61.3    41    9.3   341    12.9   834.3    0.00 
 270   19:30   0.00   60.9    41    8.7   338    13.1   834.3    0.00 
 270   19:40   0.00   60.2    42    7.9   337    11.6   834.4    0.00 
 270   19:50   0.00   59.5    43    7.1   336    10.4   834.5    0.00 
 270   20:00   0.00   58.9    44    6.7   339    10.0   834.5    0.00 
 270   20:10   0.00   57.5    47    4.9   327     7.6   834.5    0.00 
 270   20:20   0.00   54.7    52    4.5   310     5.6   834.5    0.00 
 270   20:30   0.00   54.4    51    4.3   329     5.8   834.4    0.00 
 270   20:40   0.00   54.9    49    4.2   337     5.3   834.4    0.00 
 270   20:50   0.00   54.6    51    4.5   332     5.8   834.4    0.00 
 270   21:00   0.00   53.8    53    4.7   316     6.9   834.4    0.00 
 270   21:10   0.00   53.4    54    4.2   322     5.6   834.4    0.00 
 270   21:20   0.00   52.8    55    4.6   300     5.6   834.4    0.00 
 270   21:30   0.00   53.2    54    4.3   320     5.9   834.5    0.00 
 270   21:40   0.00   52.7    54    2.6   357     4.2   834.6    0.00 
 270   21:50   0.00   49.8    60    1.3   328     1.8   834.6    0.00 
 270   22:00   0.00   50.5    59    2.2   322     4.2   834.6    0.00 
 270   22:10   0.00   49.3    62    4.2   295     4.8   834.5    0.00 
 270   22:20   0.00   47.8    64    2.2   329     4.8   834.5    0.00 
 270   22:30   0.00   47.2    64    1.9   329     3.9   834.4    0.00 
 270   22:40   0.00   46.7    65    1.4    77     2.5   834.3    0.00 
 270   22:50   0.00   46.1    67    0.3    48     2.2   834.2    0.00 
 270   23:00   0.00   46.0    68    0.3   291     1.6   834.2    0.00 
 270   23:10   0.00   47.3    65    1.7   241     3.4   834.2    0.00 
 270   23:20   0.00   48.3    64    1.8   234     2.8   834.2    0.00 
 270   23:30   0.00   48.1    64    1.0   262     2.3   834.1    0.00 
 270   23:40   0.00   48.8    62    0.0   293     0.6   834.1    0.00 
 270   23:50   0.00   48.0    63    0.0     0     0.0   834.1    0.00 
 271    0:00   0.00   47.3    64    0.4   292     1.5   833.9    0.00 
 271    0:10   0.00   43.7    74    2.4   319     4.4   833.9    0.00 
 271    0:20   0.00   42.8    76    4.0   303     5.0   833.8    0.00 
 271    0:30   0.00   42.4    76    4.9   266     5.6   833.7    0.00 
 271    0:40   0.00   42.5    78    4.9   262     5.8   833.7    0.00 
 271    0:50   0.00   42.8    77    2.5   281     5.0   833.7    0.00 
 271    1:00   0.00   42.3    78    0.0   350     0.5   833.5    0.00 
 271    1:10   0.00   43.9    74    0.6   270     1.5   833.4    0.00 
 271    1:20   0.00   43.5    71    0.8   246     2.6   833.4    0.00 
 271    1:30   0.00   41.0    78    1.0   247     2.6   833.5    0.00 
 271    1:40   0.00   41.1    80    0.4   168     1.8   833.4    0.00 
 271    1:50   0.00   43.4    75    3.5   269     4.7   833.3    0.00 
 271    2:00   0.00   42.6    76    3.8   274     4.5   833.1    0.00 
 271    2:10   0.00   41.5    78    3.5   286     4.7   833.1    0.00 
 271    2:20   0.00   41.5    78    0.6    84     2.2   833.0    0.00 
 271    2:30   0.00   42.4    73    0.5    65     1.8   833.0    0.00 
 271    2:40   0.00   42.3    73    1.5   208     3.7   832.9    0.00 
 271    2:50   0.00   42.5    75    2.1   187     2.8   832.9    0.00 
 271    3:00   0.00   42.0    76    3.0   172     4.2   832.9    0.00 
 271    3:10   0.00   41.8    76    2.7   183     3.9   832.9    0.00 
 271    3:20   0.00   41.6    77    2.5   204     3.5   833.0    0.00 
 271    3:30   0.00   41.6    77    2.9   196     4.1   833.0    0.00 
 271    3:40   0.00   40.6    78    5.3   162     8.8   833.2    0.00 
 271    3:50   0.00   39.3    81    5.6   170     9.3   833.4    0.00 
 271    4:00   0.00   40.2    80    3.9   171     5.4   833.2    0.00 
 271    4:10   0.00   42.5    74    1.7   110     3.7   833.2    0.00 
 271    4:20   0.00   43.8    69    0.7    86     2.9   833.3    0.00 
 271    4:30   0.00   42.2    73    3.3   204     5.3   833.4    0.00 
 271    4:40   0.00   42.8    74    1.4   207     3.1   833.4    0.00 
 271    4:50   0.00   43.8    72    1.3   225     2.8   833.4    0.00 
 271    5:00   0.00   41.0    75    3.8   284     4.7   833.4    0.00 
 271    5:10   0.00   38.1    81    2.5   285     4.2   833.4    0.00 
 271    5:20   0.00   34.5    81    0.8    92     2.2   833.3    0.00 
 271    5:30   0.00   33.9    85    1.6   287     2.9   833.3    0.00 
 271    5:40   0.01   34.2    86    3.2   246     3.6   833.3    0.00 
 271    5:50   0.01   34.9    86    1.9   230     3.1   833.3    0.00 
 271    6:00   0.04   36.1    87    2.0   286     2.8   833.4    0.00 
 271    6:10   0.08   38.8    84    2.5   321     3.7   833.4    0.00 
 271    6:20   0.11   41.0    79    1.7   341     2.9   833.5    0.00 
 271    6:30   0.12   42.1    75    2.3   354     4.2   833.6    0.00 
 271    6:40   0.17   43.3    73    2.5   350     3.6   833.6    0.00 
 271    6:50   0.21   45.2    70    2.3    15     3.4   833.7    0.00 
 271    7:00   0.24   47.2    69    2.3    26     3.7   833.8    0.00 
 271    7:10   0.28   48.6    67    2.3    19     4.0   833.8    0.00 
 271    7:20   0.31   50.0    64    2.1    37     3.6   833.9    0.00 
 271    7:30   0.35   51.4    61    1.6    34     3.3   834.0    0.00 
 271    7:40   0.38   53.4    57    1.2    50     3.3   834.0    0.00 
 271    7:50   0.41   54.5    54    1.3    57     3.4   834.0    0.00 
 271    8:00   0.45   55.7    52    1.1    25     3.1   834.1    0.00 
 271    8:10   0.48   57.0    50    1.3    77     3.0   834.0    0.00 
 271    8:20   0.51   58.4    50    1.1   102     2.7   834.0    0.00 
 271    8:30   0.54   59.3    48    1.3    85     4.1   833.9    0.00 
 271    8:40   0.57   60.2    45    0.6   118     2.5   833.9    0.00 
 271    8:50   0.60   61.1    44    1.3    82     4.1   833.9    0.00 
 271    9:00   0.62   62.0    44    1.7    86     4.4   833.9    0.00 
 271    9:10   0.65   62.3    42    1.8   103     4.6   833.8    0.00 
 271    9:20   0.67   62.7    42    1.8   119     4.7   833.6    0.00 
 271    9:30   0.69   63.4    41    2.0    91     4.9   833.6    0.00 
 271    9:40   0.71   64.7    37    2.2   215     4.2   833.4    0.00 
 271    9:50   0.73   65.6    36    1.6    66     3.7   833.2    0.00 
 271   10:00   0.75   65.7    36    1.6    19     4.0   833.0    0.00 
 271   10:10   0.77   67.3    34    1.4   344     4.4   832.9    0.00 
 271   10:20   0.78   67.8    33    1.6    54     4.1   832.7    0.00 
 271   10:30   0.80   68.7    31    1.4   138     3.6   832.5    0.00 
 271   10:40   0.81   69.6    30    1.4   260     4.8   832.2    0.00 
 271   10:50   0.82   70.0    32    1.4    33     3.9   832.1    0.00 
 271   11:00   0.82   70.4    30    2.7    38     5.9   831.9    0.00 
 271   11:10   0.83   71.4    29    1.7    76     5.8   831.8    0.00 
 271   11:20   0.83   72.3    29    1.1   254     3.5   831.6    0.00 
 271   11:30   0.83   73.3    28    2.1   358     6.4   831.4    0.00 
 271   11:40   0.83   74.1    26    1.2   160     4.5   831.3    0.00 
 271   11:50   0.83   74.2    26    2.9   124     7.1   831.2    0.00 
 271   12:00   0.83   73.7    24    2.7    70     7.7   831.0    0.00 
 271   12:10   0.82   74.8    24    1.4   306     3.1   830.8    0.00 
 271   12:20   0.81   75.6    22    2.7   204     6.9   830.7    0.00 
 271   12:30   0.79   75.6    22    2.3   148     5.9   830.5    0.00 
 271   12:40   0.79   75.3    22    2.8    87     6.7   830.4    0.00 
 271   12:50   0.78   75.9    21    2.1    60     4.2   830.3    0.00 
 271   13:00   0.76   77.4    20    1.4   276     3.1   830.1    0.00 
 271   13:10   0.75   77.7    19    1.3   140     4.5   830.0    0.00 
 271   13:20   0.73   78.6    19    1.7   219     3.7   830.0    0.00 
 271   13:30   0.71   80.0    18    1.4   196     5.3   830.0    0.00 
 271   13:40   0.69   80.1    18    1.4    92     4.3   830.0    0.00 
 271   13:50   0.67   79.2    18    2.1    42     4.5   830.0    0.00 
 271   14:00   0.64   78.9    17    2.6   309     5.6   830.0    0.00 
 271   14:10   0.62   79.6    16    1.6   297     5.8   830.0    0.00 
 271   14:20   0.59   79.5    17    3.3   263     6.5   830.0    0.00 
 271   14:30   0.56   79.1    17    2.3    32     6.0   829.9    0.00 
 271   14:40   0.53   78.9    16    3.0    17     6.5   829.8    0.00 
 271   14:50   0.50   78.8    16    2.7     1     5.8   829.8    0.00 
 271   15:00   0.47   80.1    15    1.0   344     3.4   829.7    0.00 
 271   15:10   0.43   80.9    15    1.4   359     4.5   829.6    0.00 

Return to North Spring Valley graphs page.


Western Regional Climate Center,wrcc@dri.edu